Aviation Digital Data Service (ADDS)

Output produced by METARs form (1901 UTC 18 June 2019)
found at http://www.aviationweather.gov/metar/data/
 
KMPV 181751Z AUTO 16004KT 10SM BKN042 BKN065 OVC090 21/09 A2999 RMK AO2 SLP155 T02110094 10211 20133 56015
KMPV 181720Z 1818/1918 VRB04KT P6SM SCT040 BKN080 
     FM182300 00000KT P6SM SCT100 
     FM190500 00000KT P6SM SCT150 
     FM190900 00000KT P6SM FEW150 
     FM191400 VRB04KT P6SM SCT050
       
KDDH 181854Z AUTO 00000KT 10SM FEW032 21/16 A2992 RMK AO2 SLP129 T02060156
KBTV 181854Z 21007KT 10SM FEW060 SCT120 26/12 A2990 RMK AO2 SLP122 ACSL SE-W T02610122
KBTV 181720Z 1818/1918 VRB04KT P6SM FEW060 SCT200 
     FM182300 15003KT P6SM FEW150 
     FM190400 16003KT P6SM SCT150 
     FM190900 18005KT P6SM FEW150 
     FM191400 19007KT P6SM SCT050
       
KFSO 181856Z AUTO 28003KT 10SM CLR 27/10 A2990 RMK AO2 T02720100
KCDA 181858Z AUTO 14006KT 10SM SCT055 BKN080 22/12 A2996 RMK AO2 T02230115
KMVL 181854Z AUTO 14003KT 10SM BKN110 23/11 A2992 RMK AO2 SLP131 T02330111
KEFK 181856Z AUTO 00000KT 10SM SCT070 BKN080 23/11 A2993 RMK AO2 T02310112
KRUT 181856Z AUTO VRB04KT 10SM OVC070 23/13 A2992 RMK AO2 SLP125 T02280128 $
KRUT 181720Z 1818/1918 13009KT P6SM FEW045 BKN200 
     FM182200 14006KT P6SM SCT150 
     FM190100 13006KT P6SM FEW150 
     FM191500 VRB04KT P6SM SCT050 
     FM191700 17005KT P6SM VCSH BKN040
       
KVSF 181854Z AUTO 15003KT 10SM FEW085 21/12 A2994 RMK AO2 SLP138 T02110122